sensor_id;sensor_type;location;lat;lon;timestamp;P1;durP1;ratioP1;P2;durP2;ratioP2
56201;SDS011;42117;50.360;3.508;2023-04-25T00:00:31;14.00;;;7.00;;
56201;SDS011;42117;50.360;3.508;2023-04-25T00:02:57;11.90;;;6.30;;
56201;SDS011;42117;50.360;3.508;2023-04-25T00:05:24;10.40;;;6.47;;
56201;SDS011;42117;50.360;3.508;2023-04-25T00:07:51;13.98;;;6.85;;
56201;SDS011;42117;50.360;3.508;2023-04-25T00:10:17;9.50;;;6.38;;
56201;SDS011;42117;50.360;3.508;2023-04-25T00:12:43;14.13;;;7.65;;
56201;SDS011;42117;50.360;3.508;2023-04-25T00:15:09;20.20;;;7.72;;
56201;SDS011;42117;50.360;3.508;2023-04-25T00:17:35;16.13;;;7.43;;
56201;SDS011;42117;50.360;3.508;2023-04-25T00:20:03;14.35;;;6.80;;
56201;SDS011;42117;50.360;3.508;2023-04-25T00:22:35;15.35;;;7.20;;
56201;SDS011;42117;50.360;3.508;2023-04-25T00:25:05;10.50;;;6.13;;
56201;SDS011;42117;50.360;3.508;2023-04-25T00:27:31;11.57;;;6.70;;
56201;SDS011;42117;50.360;3.508;2023-04-25T00:29:57;12.97;;;6.47;;
56201;SDS011;42117;50.360;3.508;2023-04-25T00:32:23;14.17;;;7.13;;
56201;SDS011;42117;50.360;3.508;2023-04-25T00:34:49;11.50;;;6.70;;
56201;SDS011;42117;50.360;3.508;2023-04-25T00:37:15;12.43;;;6.57;;
56201;SDS011;42117;50.360;3.508;2023-04-25T00:39:41;12.07;;;6.55;;
56201;SDS011;42117;50.360;3.508;2023-04-25T00:42:07;11.13;;;6.18;;
56201;SDS011;42117;50.360;3.508;2023-04-25T00:44:33;14.43;;;6.80;;
56201;SDS011;42117;50.360;3.508;2023-04-25T00:47:00;11.02;;;6.88;;
56201;SDS011;42117;50.360;3.508;2023-04-25T00:49:27;15.43;;;8.25;;
56201;SDS011;42117;50.360;3.508;2023-04-25T00:51:53;15.57;;;8.20;;
56201;SDS011;42117;50.360;3.508;2023-04-25T00:54:19;16.23;;;7.97;;
56201;SDS011;42117;50.360;3.508;2023-04-25T00:56:46;11.82;;;7.43;;
56201;SDS011;42117;50.360;3.508;2023-04-25T00:59:12;16.75;;;7.80;;
56201;SDS011;42117;50.360;3.508;2023-04-25T01:01:38;14.90;;;7.63;;
56201;SDS011;42117;50.360;3.508;2023-04-25T01:04:04;12.85;;;6.93;;
56201;SDS011;42117;50.360;3.508;2023-04-25T01:06:30;11.65;;;7.38;;
56201;SDS011;42117;50.360;3.508;2023-04-25T01:08:57;13.68;;;7.50;;
56201;SDS011;42117;50.360;3.508;2023-04-25T01:11:23;11.77;;;7.80;;
56201;SDS011;42117;50.360;3.508;2023-04-25T01:13:50;34.03;;;13.18;;
56201;SDS011;42117;50.360;3.508;2023-04-25T01:16:16;15.48;;;9.10;;
56201;SDS011;42117;50.360;3.508;2023-04-25T01:18:42;13.85;;;7.78;;
56201;SDS011;42117;50.360;3.508;2023-04-25T01:21:11;15.25;;;8.40;;
56201;SDS011;42117;50.360;3.508;2023-04-25T01:23:38;16.37;;;8.53;;
56201;SDS011;42117;50.360;3.508;2023-04-25T01:26:05;15.80;;;8.02;;
56201;SDS011;42117;50.360;3.508;2023-04-25T01:28:32;15.80;;;8.38;;
56201;SDS011;42117;50.360;3.508;2023-04-25T01:30:58;19.17;;;8.27;;
56201;SDS011;42117;50.360;3.508;2023-04-25T01:33:24;16.25;;;8.43;;
56201;SDS011;42117;50.360;3.508;2023-04-25T01:35:51;17.93;;;8.43;;
56201;SDS011;42117;50.360;3.508;2023-04-25T01:38:17;22.70;;;9.70;;
56201;SDS011;42117;50.360;3.508;2023-04-25T01:40:43;16.58;;;8.52;;
56201;SDS011;42117;50.360;3.508;2023-04-25T01:43:10;22.45;;;10.50;;
56201;SDS011;42117;50.360;3.508;2023-04-25T01:45:43;20.15;;;9.48;;
56201;SDS011;42117;50.360;3.508;2023-04-25T01:48:09;20.80;;;9.13;;
56201;SDS011;42117;50.360;3.508;2023-04-25T01:50:36;23.48;;;9.10;;
56201;SDS011;42117;50.360;3.508;2023-04-25T01:53:03;22.85;;;10.10;;
56201;SDS011;42117;50.360;3.508;2023-04-25T01:55:29;18.07;;;9.07;;
56201;SDS011;42117;50.360;3.508;2023-04-25T01:57:55;18.02;;;9.02;;
56201;SDS011;42117;50.360;3.508;2023-04-25T02:00:22;19.20;;;8.48;;
56201;SDS011;42117;50.360;3.508;2023-04-25T02:02:48;16.58;;;7.20;;
56201;SDS011;42117;50.360;3.508;2023-04-25T02:05:15;18.73;;;7.43;;
56201;SDS011;42117;50.360;3.508;2023-04-25T02:07:41;21.42;;;7.53;;
56201;SDS011;42117;50.360;3.508;2023-04-25T02:18:21;18.65;;;5.97;;
56201;SDS011;42117;50.360;3.508;2023-04-25T02:26:27;15.27;;;5.53;;
56201;SDS011;42117;50.360;3.508;2023-04-25T02:28:53;18.92;;;5.38;;
56201;SDS011;42117;50.360;3.508;2023-04-25T02:31:19;18.42;;;6.05;;
56201;SDS011;42117;50.360;3.508;2023-04-25T02:33:45;10.55;;;4.78;;
56201;SDS011;42117;50.360;3.508;2023-04-25T02:36:12;18.27;;;5.07;;
56201;SDS011;42117;50.360;3.508;2023-04-25T02:38:38;11.73;;;5.03;;
56201;SDS011;42117;50.360;3.508;2023-04-25T02:41:04;12.98;;;4.70;;
56201;SDS011;42117;50.360;3.508;2023-04-25T02:43:30;9.70;;;3.97;;
56201;SDS011;42117;50.360;3.508;2023-04-25T02:45:56;10.02;;;3.65;;
56201;SDS011;42117;50.360;3.508;2023-04-25T02:48:22;11.18;;;3.80;;
56201;SDS011;42117;50.360;3.508;2023-04-25T02:50:48;13.13;;;4.55;;
56201;SDS011;42117;50.360;3.508;2023-04-25T02:53:14;11.20;;;4.32;;
56201;SDS011;42117;50.360;3.508;2023-04-25T02:55:40;12.07;;;4.05;;
56201;SDS011;42117;50.360;3.508;2023-04-25T02:58:06;10.98;;;4.07;;
56201;SDS011;42117;50.360;3.508;2023-04-25T03:00:32;11.25;;;4.18;;
56201;SDS011;42117;50.360;3.508;2023-04-25T03:02:58;15.07;;;4.82;;
56201;SDS011;42117;50.360;3.508;2023-04-25T03:05:25;9.88;;;4.00;;
56201;SDS011;42117;50.360;3.508;2023-04-25T03:07:51;8.38;;;3.95;;
56201;SDS011;42117;50.360;3.508;2023-04-25T03:10:17;9.02;;;4.20;;
56201;SDS011;42117;50.360;3.508;2023-04-25T03:12:43;15.38;;;4.57;;
56201;SDS011;42117;50.360;3.508;2023-04-25T03:15:09;12.63;;;4.20;;
56201;SDS011;42117;50.360;3.508;2023-04-25T03:17:35;11.05;;;4.45;;
56201;SDS011;42117;50.360;3.508;2023-04-25T03:20:01;15.67;;;4.10;;
56201;SDS011;42117;50.360;3.508;2023-04-25T03:22:28;12.95;;;4.18;;
56201;SDS011;42117;50.360;3.508;2023-04-25T03:24:54;10.70;;;4.78;;
56201;SDS011;42117;50.360;3.508;2023-04-25T03:27:20;9.13;;;4.43;;
56201;SDS011;42117;50.360;3.508;2023-04-25T03:29:46;10.55;;;4.93;;
56201;SDS011;42117;50.360;3.508;2023-04-25T03:32:12;13.70;;;5.50;;
56201;SDS011;42117;50.360;3.508;2023-04-25T03:34:38;11.05;;;4.82;;
56201;SDS011;42117;50.360;3.508;2023-04-25T03:37:05;11.40;;;5.00;;
56201;SDS011;42117;50.360;3.508;2023-04-25T03:39:31;14.40;;;4.40;;
56201;SDS011;42117;50.360;3.508;2023-04-25T03:41:57;12.80;;;5.07;;
56201;SDS011;42117;50.360;3.508;2023-04-25T03:44:23;14.63;;;5.75;;
56201;SDS011;42117;50.360;3.508;2023-04-25T03:46:49;14.32;;;5.60;;
56201;SDS011;42117;50.360;3.508;2023-04-25T03:49:16;13.77;;;5.37;;
56201;SDS011;42117;50.360;3.508;2023-04-25T03:51:42;20.42;;;5.78;;
56201;SDS011;42117;50.360;3.508;2023-04-25T03:54:08;11.30;;;5.20;;
56201;SDS011;42117;50.360;3.508;2023-04-25T03:56:34;12.27;;;4.90;;
56201;SDS011;42117;50.360;3.508;2023-04-25T03:59:00;12.57;;;4.68;;
56201;SDS011;42117;50.360;3.508;2023-04-25T04:01:26;10.75;;;5.40;;
56201;SDS011;42117;50.360;3.508;2023-04-25T04:03:52;11.52;;;5.25;;
56201;SDS011;42117;50.360;3.508;2023-04-25T04:06:18;11.63;;;5.70;;
56201;SDS011;42117;50.360;3.508;2023-04-25T04:08:45;8.48;;;5.22;;
56201;SDS011;42117;50.360;3.508;2023-04-25T04:11:11;14.77;;;5.75;;
56201;SDS011;42117;50.360;3.508;2023-04-25T04:13:37;12.93;;;5.78;;
56201;SDS011;42117;50.360;3.508;2023-04-25T04:16:03;10.85;;;5.85;;
56201;SDS011;42117;50.360;3.508;2023-04-25T04:18:30;13.18;;;6.32;;
56201;SDS011;42117;50.360;3.508;2023-04-25T04:20:56;12.57;;;5.38;;
56201;SDS011;42117;50.360;3.508;2023-04-25T04:23:23;13.98;;;5.82;;
56201;SDS011;42117;50.360;3.508;2023-04-25T04:25:49;15.93;;;6.90;;
56201;SDS011;42117;50.360;3.508;2023-04-25T04:28:15;12.10;;;6.45;;
56201;SDS011;42117;50.360;3.508;2023-04-25T04:30:41;11.90;;;5.75;;
56201;SDS011;42117;50.360;3.508;2023-04-25T04:33:10;14.75;;;6.15;;
56201;SDS011;42117;50.360;3.508;2023-04-25T04:35:37;10.00;;;5.57;;
56201;SDS011;42117;50.360;3.508;2023-04-25T04:38:03;14.13;;;6.43;;
56201;SDS011;42117;50.360;3.508;2023-04-25T04:40:29;16.00;;;6.35;;
56201;SDS011;42117;50.360;3.508;2023-04-25T04:42:56;13.05;;;6.15;;
56201;SDS011;42117;50.360;3.508;2023-04-25T04:45:22;14.02;;;6.70;;
56201;SDS011;42117;50.360;3.508;2023-04-25T04:47:48;17.20;;;6.93;;
56201;SDS011;42117;50.360;3.508;2023-04-25T04:50:15;15.68;;;7.28;;
56201;SDS011;42117;50.360;3.508;2023-04-25T04:52:41;13.57;;;6.10;;
56201;SDS011;42117;50.360;3.508;2023-04-25T04:55:07;17.93;;;6.67;;
56201;SDS011;42117;50.360;3.508;2023-04-25T04:57:34;15.25;;;6.28;;
56201;SDS011;42117;50.360;3.508;2023-04-25T05:00:00;19.25;;;6.65;;
56201;SDS011;42117;50.360;3.508;2023-04-25T05:02:29;11.10;;;6.53;;
56201;SDS011;42117;50.360;3.508;2023-04-25T05:04:56;12.55;;;6.68;;
56201;SDS011;42117;50.360;3.508;2023-04-25T05:07:22;11.75;;;5.95;;
56201;SDS011;42117;50.360;3.508;2023-04-25T05:09:48;12.93;;;6.68;;
56201;SDS011;42117;50.360;3.508;2023-04-25T05:12:14;11.27;;;6.00;;
56201;SDS011;42117;50.360;3.508;2023-04-25T05:14:40;16.30;;;5.82;;
56201;SDS011;42117;50.360;3.508;2023-04-25T05:17:06;12.32;;;5.38;;
56201;SDS011;42117;50.360;3.508;2023-04-25T05:19:33;13.03;;;5.47;;
56201;SDS011;42117;50.360;3.508;2023-04-25T05:21:59;9.85;;;6.03;;
56201;SDS011;42117;50.360;3.508;2023-04-25T05:24:25;9.40;;;5.60;;
56201;SDS011;42117;50.360;3.508;2023-04-25T05:26:51;13.32;;;5.18;;
56201;SDS011;42117;50.360;3.508;2023-04-25T05:29:18;14.85;;;5.75;;
56201;SDS011;42117;50.360;3.508;2023-04-25T05:31:44;12.13;;;6.30;;
56201;SDS011;42117;50.360;3.508;2023-04-25T05:34:10;14.65;;;5.90;;
56201;SDS011;42117;50.360;3.508;2023-04-25T05:36:36;15.07;;;5.60;;
56201;SDS011;42117;50.360;3.508;2023-04-25T05:39:02;20.67;;;6.00;;
56201;SDS011;42117;50.360;3.508;2023-04-25T05:41:29;13.43;;;5.90;;
56201;SDS011;42117;50.360;3.508;2023-04-25T05:43:55;14.57;;;5.60;;
56201;SDS011;42117;50.360;3.508;2023-04-25T05:46:21;10.85;;;4.68;;
56201;SDS011;42117;50.360;3.508;2023-04-25T05:48:47;10.88;;;5.03;;
56201;SDS011;42117;50.360;3.508;2023-04-25T05:51:13;11.68;;;5.28;;
56201;SDS011;42117;50.360;3.508;2023-04-25T05:53:39;12.18;;;4.47;;
56201;SDS011;42117;50.360;3.508;2023-04-25T05:56:05;15.25;;;5.50;;
56201;SDS011;42117;50.360;3.508;2023-04-25T05:58:31;17.48;;;5.38;;
56201;SDS011;42117;50.360;3.508;2023-04-25T06:00:57;17.95;;;5.50;;
56201;SDS011;42117;50.360;3.508;2023-04-25T06:03:24;20.30;;;5.30;;
56201;SDS011;42117;50.360;3.508;2023-04-25T06:05:50;21.10;;;8.40;;
56201;SDS011;42117;50.360;3.508;2023-04-25T06:08:16;12.10;;;5.32;;
56201;SDS011;42117;50.360;3.508;2023-04-25T06:10:42;17.00;;;4.90;;
56201;SDS011;42117;50.360;3.508;2023-04-25T06:13:08;17.20;;;5.05;;
56201;SDS011;42117;50.360;3.508;2023-04-25T06:15:34;12.88;;;4.65;;
56201;SDS011;42117;50.360;3.508;2023-04-25T06:18:00;9.68;;;4.88;;
56201;SDS011;42117;50.360;3.508;2023-04-25T06:20:26;14.63;;;5.15;;
56201;SDS011;42117;50.360;3.508;2023-04-25T06:22:52;11.20;;;4.05;;
56201;SDS011;42117;50.360;3.508;2023-04-25T06:25:18;14.48;;;4.93;;
56201;SDS011;42117;50.360;3.508;2023-04-25T06:27:45;11.93;;;3.90;;
56201;SDS011;42117;50.360;3.508;2023-04-25T06:30:11;12.77;;;4.97;;
56201;SDS011;42117;50.360;3.508;2023-04-25T06:32:37;14.43;;;4.95;;
56201;SDS011;42117;50.360;3.508;2023-04-25T06:35:03;21.05;;;6.35;;
56201;SDS011;42117;50.360;3.508;2023-04-25T06:37:30;18.50;;;5.03;;
56201;SDS011;42117;50.360;3.508;2023-04-25T06:39:56;13.32;;;4.57;;
56201;SDS011;42117;50.360;3.508;2023-04-25T06:42:22;15.77;;;5.22;;
56201;SDS011;42117;50.360;3.508;2023-04-25T06:44:48;13.10;;;4.43;;
56201;SDS011;42117;50.360;3.508;2023-04-25T06:47:14;12.02;;;4.88;;
56201;SDS011;42117;50.360;3.508;2023-04-25T06:49:40;16.07;;;5.70;;
56201;SDS011;42117;50.360;3.508;2023-04-25T06:52:07;9.53;;;4.27;;
56201;SDS011;42117;50.360;3.508;2023-04-25T06:54:33;12.02;;;4.05;;
56201;SDS011;42117;50.360;3.508;2023-04-25T06:56:59;14.30;;;4.05;;
56201;SDS011;42117;50.360;3.508;2023-04-25T06:59:26;11.10;;;4.75;;
56201;SDS011;42117;50.360;3.508;2023-04-25T07:01:52;17.70;;;4.55;;
56201;SDS011;42117;50.360;3.508;2023-04-25T07:04:18;17.60;;;4.40;;
56201;SDS011;42117;50.360;3.508;2023-04-25T07:06:44;11.53;;;4.27;;
56201;SDS011;42117;50.360;3.508;2023-04-25T07:09:12;12.20;;;4.80;;
56201;SDS011;42117;50.360;3.508;2023-04-25T07:11:38;10.03;;;4.37;;
56201;SDS011;42117;50.360;3.508;2023-04-25T07:14:04;17.98;;;4.43;;
56201;SDS011;42117;50.360;3.508;2023-04-25T07:16:30;10.73;;;3.72;;
56201;SDS011;42117;50.360;3.508;2023-04-25T07:18:56;20.77;;;4.28;;
56201;SDS011;42117;50.360;3.508;2023-04-25T07:21:22;19.02;;;4.38;;
56201;SDS011;42117;50.360;3.508;2023-04-25T07:23:48;13.33;;;4.53;;
56201;SDS011;42117;50.360;3.508;2023-04-25T07:26:14;11.90;;;3.73;;
56201;SDS011;42117;50.360;3.508;2023-04-25T07:28:40;15.97;;;4.23;;
56201;SDS011;42117;50.360;3.508;2023-04-25T07:31:06;29.93;;;4.93;;
56201;SDS011;42117;50.360;3.508;2023-04-25T07:33:32;10.73;;;4.43;;
56201;SDS011;42117;50.360;3.508;2023-04-25T07:35:58;10.30;;;3.60;;
56201;SDS011;42117;50.360;3.508;2023-04-25T07:38:24;14.88;;;3.80;;
56201;SDS011;42117;50.360;3.508;2023-04-25T07:40:51;19.27;;;4.10;;
56201;SDS011;42117;50.360;3.508;2023-04-25T07:43:17;11.38;;;3.78;;
56201;SDS011;42117;50.360;3.508;2023-04-25T07:45:43;12.93;;;4.28;;
56201;SDS011;42117;50.360;3.508;2023-04-25T07:48:09;14.05;;;4.07;;
56201;SDS011;42117;50.360;3.508;2023-04-25T07:50:35;12.93;;;3.90;;
56201;SDS011;42117;50.360;3.508;2023-04-25T07:53:01;12.35;;;4.30;;
56201;SDS011;42117;50.360;3.508;2023-04-25T07:55:28;11.80;;;3.65;;
56201;SDS011;42117;50.360;3.508;2023-04-25T07:57:54;14.68;;;4.22;;
56201;SDS011;42117;50.360;3.508;2023-04-25T08:00:20;13.55;;;4.00;;
56201;SDS011;42117;50.360;3.508;2023-04-25T08:02:46;9.20;;;3.97;;
56201;SDS011;42117;50.360;3.508;2023-04-25T08:05:12;9.85;;;3.55;;
56201;SDS011;42117;50.360;3.508;2023-04-25T08:07:40;11.77;;;3.65;;
56201;SDS011;42117;50.360;3.508;2023-04-25T08:10:06;12.73;;;3.50;;
56201;SDS011;42117;50.360;3.508;2023-04-25T08:12:32;7.07;;;3.05;;
56201;SDS011;42117;50.360;3.508;2023-04-25T08:14:59;7.70;;;3.03;;
56201;SDS011;42117;50.360;3.508;2023-04-25T08:17:25;8.48;;;3.63;;
56201;SDS011;42117;50.360;3.508;2023-04-25T08:19:51;7.22;;;3.08;;
56201;SDS011;42117;50.360;3.508;2023-04-25T08:22:17;16.42;;;3.92;;
56201;SDS011;42117;50.360;3.508;2023-04-25T08:24:43;15.52;;;4.00;;
56201;SDS011;42117;50.360;3.508;2023-04-25T08:27:09;10.55;;;3.75;;
56201;SDS011;42117;50.360;3.508;2023-04-25T08:29:36;12.15;;;3.33;;
56201;SDS011;42117;50.360;3.508;2023-04-25T08:32:02;10.43;;;3.17;;
56201;SDS011;42117;50.360;3.508;2023-04-25T08:34:28;7.38;;;3.05;;
56201;SDS011;42117;50.360;3.508;2023-04-25T08:36:54;10.38;;;2.78;;
56201;SDS011;42117;50.360;3.508;2023-04-25T08:39:20;9.55;;;3.10;;
56201;SDS011;42117;50.360;3.508;2023-04-25T08:41:46;20.83;;;4.25;;
56201;SDS011;42117;50.360;3.508;2023-04-25T08:44:12;13.90;;;3.20;;
56201;SDS011;42117;50.360;3.508;2023-04-25T08:46:39;8.40;;;3.10;;
56201;SDS011;42117;50.360;3.508;2023-04-25T08:49:06;5.32;;;2.55;;
56201;SDS011;42117;50.360;3.508;2023-04-25T08:51:34;6.43;;;2.67;;
56201;SDS011;42117;50.360;3.508;2023-04-25T08:54:08;5.88;;;2.85;;
56201;SDS011;42117;50.360;3.508;2023-04-25T08:56:35;10.30;;;2.92;;
56201;SDS011;42117;50.360;3.508;2023-04-25T08:59:01;9.80;;;3.08;;
56201;SDS011;42117;50.360;3.508;2023-04-25T09:01:27;8.43;;;2.80;;
56201;SDS011;42117;50.360;3.508;2023-04-25T09:03:53;6.40;;;2.73;;
56201;SDS011;42117;50.360;3.508;2023-04-25T09:06:19;10.57;;;2.55;;
56201;SDS011;42117;50.360;3.508;2023-04-25T09:08:45;9.38;;;2.40;;
56201;SDS011;42117;50.360;3.508;2023-04-25T09:11:12;7.93;;;2.90;;
56201;SDS011;42117;50.360;3.508;2023-04-25T09:13:39;6.80;;;2.53;;
56201;SDS011;42117;50.360;3.508;2023-04-25T09:16:05;9.98;;;3.38;;
56201;SDS011;42117;50.360;3.508;2023-04-25T09:18:32;10.85;;;3.03;;
56201;SDS011;42117;50.360;3.508;2023-04-25T09:21:06;4.93;;;2.50;;
56201;SDS011;42117;50.360;3.508;2023-04-25T09:23:43;5.63;;;2.70;;
56201;SDS011;42117;50.360;3.508;2023-04-25T09:26:10;8.52;;;3.15;;
56201;SDS011;42117;50.360;3.508;2023-04-25T09:28:39;7.70;;;2.97;;
56201;SDS011;42117;50.360;3.508;2023-04-25T09:31:05;4.82;;;2.13;;
56201;SDS011;42117;50.360;3.508;2023-04-25T09:33:32;6.20;;;2.95;;
56201;SDS011;42117;50.360;3.508;2023-04-25T09:36:04;8.20;;;2.73;;
56201;SDS011;42117;50.360;3.508;2023-04-25T09:38:31;4.00;;;2.70;;
56201;SDS011;42117;50.360;3.508;2023-04-25T09:40:57;9.95;;;2.60;;
56201;SDS011;42117;50.360;3.508;2023-04-25T09:43:24;6.00;;;2.65;;
56201;SDS011;42117;50.360;3.508;2023-04-25T09:45:51;3.65;;;1.85;;
56201;SDS011;42117;50.360;3.508;2023-04-25T09:48:20;6.53;;;2.15;;
56201;SDS011;42117;50.360;3.508;2023-04-25T09:53:32;7.97;;;2.58;;
56201;SDS011;42117;50.360;3.508;2023-04-25T09:55:59;8.00;;;2.70;;
56201;SDS011;42117;50.360;3.508;2023-04-25T09:58:25;5.90;;;1.83;;
56201;SDS011;42117;50.360;3.508;2023-04-25T10:00:55;5.07;;;2.30;;
56201;SDS011;42117;50.360;3.508;2023-04-25T10:03:25;5.28;;;2.20;;
56201;SDS011;42117;50.360;3.508;2023-04-25T10:05:51;4.68;;;2.25;;
56201;SDS011;42117;50.360;3.508;2023-04-25T10:08:18;3.38;;;2.00;;
56201;SDS011;42117;50.360;3.508;2023-04-25T10:10:44;8.68;;;2.17;;
56201;SDS011;42117;50.360;3.508;2023-04-25T10:13:10;2.67;;;2.20;;
56201;SDS011;42117;50.360;3.508;2023-04-25T10:15:39;5.25;;;2.10;;
56201;SDS011;42117;50.360;3.508;2023-04-25T10:18:05;5.10;;;2.17;;
56201;SDS011;42117;50.360;3.508;2023-04-25T10:20:32;5.33;;;2.40;;
56201;SDS011;42117;50.360;3.508;2023-04-25T10:23:03;6.23;;;2.47;;
56201;SDS011;42117;50.360;3.508;2023-04-25T10:25:29;2.58;;;1.95;;
56201;SDS011;42117;50.360;3.508;2023-04-25T10:27:56;5.00;;;2.55;;
56201;SDS011;42117;50.360;3.508;2023-04-25T10:30:22;7.75;;;2.47;;
56201;SDS011;42117;50.360;3.508;2023-04-25T10:32:48;8.40;;;3.20;;
56201;SDS011;42117;50.360;3.508;2023-04-25T10:37:56;8.15;;;2.40;;
56201;SDS011;42117;50.360;3.508;2023-04-25T10:40:23;7.60;;;2.30;;
56201;SDS011;42117;50.360;3.508;2023-04-25T10:42:51;6.45;;;2.00;;
56201;SDS011;42117;50.360;3.508;2023-04-25T10:45:17;2.65;;;1.92;;
56201;SDS011;42117;50.360;3.508;2023-04-25T10:47:43;6.90;;;2.53;;
56201;SDS011;42117;50.360;3.508;2023-04-25T10:50:10;7.03;;;2.50;;
56201;SDS011;42117;50.360;3.508;2023-04-25T10:52:38;4.40;;;1.75;;
56201;SDS011;42117;50.360;3.508;2023-04-25T10:55:05;3.67;;;1.97;;
56201;SDS011;42117;50.360;3.508;2023-04-25T10:57:41;4.28;;;2.00;;
56201;SDS011;42117;50.360;3.508;2023-04-25T11:00:18;3.17;;;2.10;;
56201;SDS011;42117;50.360;3.508;2023-04-25T11:02:51;6.18;;;1.90;;
56201;SDS011;42117;50.360;3.508;2023-04-25T11:07:51;4.13;;;1.92;;
56201;SDS011;42117;50.360;3.508;2023-04-25T11:10:18;4.57;;;2.28;;
56201;SDS011;42117;50.360;3.508;2023-04-25T11:12:45;3.15;;;2.00;;
56201;SDS011;42117;50.360;3.508;2023-04-25T11:15:11;2.40;;;1.73;;
56201;SDS011;42117;50.360;3.508;2023-04-25T11:17:38;3.90;;;1.87;;
56201;SDS011;42117;50.360;3.508;2023-04-25T11:20:05;2.00;;;1.70;;
56201;SDS011;42117;50.360;3.508;2023-04-25T11:22:34;2.20;;;1.80;;
56201;SDS011;42117;50.360;3.508;2023-04-25T11:25:04;4.32;;;1.90;;
56201;SDS011;42117;50.360;3.508;2023-04-25T11:27:30;5.28;;;1.77;;
56201;SDS011;42117;50.360;3.508;2023-04-25T11:29:56;2.97;;;1.93;;
56201;SDS011;42117;50.360;3.508;2023-04-25T11:32:22;3.45;;;1.77;;
56201;SDS011;42117;50.360;3.508;2023-04-25T11:34:48;4.22;;;1.83;;
56201;SDS011;42117;50.360;3.508;2023-04-25T11:37:15;3.97;;;2.00;;
56201;SDS011;42117;50.360;3.508;2023-04-25T11:39:44;3.58;;;2.13;;
56201;SDS011;42117;50.360;3.508;2023-04-25T11:42:11;5.25;;;2.60;;
56201;SDS011;42117;50.360;3.508;2023-04-25T11:44:38;9.02;;;2.15;;
56201;SDS011;42117;50.360;3.508;2023-04-25T11:47:04;3.20;;;1.80;;
56201;SDS011;42117;50.360;3.508;2023-04-25T11:49:30;3.90;;;2.20;;
56201;SDS011;42117;50.360;3.508;2023-04-25T11:51:57;3.75;;;2.40;;
56201;SDS011;42117;50.360;3.508;2023-04-25T11:54:23;5.05;;;2.42;;
56201;SDS011;42117;50.360;3.508;2023-04-25T11:56:49;2.63;;;2.00;;
56201;SDS011;42117;50.360;3.508;2023-04-25T11:59:15;6.70;;;2.35;;
56201;SDS011;42117;50.360;3.508;2023-04-25T12:01:47;4.80;;;2.75;;
56201;SDS011;42117;50.360;3.508;2023-04-25T12:06:43;5.68;;;2.50;;
56201;SDS011;42117;50.360;3.508;2023-04-25T12:09:12;5.63;;;2.70;;
56201;SDS011;42117;50.360;3.508;2023-04-25T12:11:41;6.78;;;2.22;;
56201;SDS011;42117;50.360;3.508;2023-04-25T12:14:11;7.00;;;2.55;;
56201;SDS011;42117;50.360;3.508;2023-04-25T12:16:40;4.90;;;2.33;;
56201;SDS011;42117;50.360;3.508;2023-04-25T12:19:07;8.75;;;2.92;;
56201;SDS011;42117;50.360;3.508;2023-04-25T12:21:33;8.98;;;2.58;;
56201;SDS011;42117;50.360;3.508;2023-04-25T12:24:15;7.47;;;2.63;;
56201;SDS011;42117;50.360;3.508;2023-04-25T12:26:53;5.68;;;2.10;;
56201;SDS011;42117;50.360;3.508;2023-04-25T12:29:20;7.50;;;2.38;;
56201;SDS011;42117;50.360;3.508;2023-04-25T12:31:46;3.42;;;2.15;;
56201;SDS011;42117;50.360;3.508;2023-04-25T12:34:13;2.80;;;2.47;;
56201;SDS011;42117;50.360;3.508;2023-04-25T12:36:39;4.75;;;2.20;;
56201;SDS011;42117;50.360;3.508;2023-04-25T12:39:05;6.65;;;2.55;;
56201;SDS011;42117;50.360;3.508;2023-04-25T12:41:34;9.48;;;2.05;;
56201;SDS011;42117;50.360;3.508;2023-04-25T12:44:00;4.93;;;2.10;;
56201;SDS011;42117;50.360;3.508;2023-04-25T12:46:26;4.25;;;2.00;;
56201;SDS011;42117;50.360;3.508;2023-04-25T12:48:52;9.10;;;2.47;;
56201;SDS011;42117;50.360;3.508;2023-04-25T12:51:19;4.32;;;2.38;;
56201;SDS011;42117;50.360;3.508;2023-04-25T12:53:45;3.53;;;1.80;;
56201;SDS011;42117;50.360;3.508;2023-04-25T12:56:11;3.92;;;2.00;;
56201;SDS011;42117;50.360;3.508;2023-04-25T12:58:37;6.47;;;2.00;;
56201;SDS011;42117;50.360;3.508;2023-04-25T13:01:03;4.13;;;1.80;;
56201;SDS011;42117;50.360;3.508;2023-04-25T13:03:30;5.15;;;1.80;;
56201;SDS011;42117;50.360;3.508;2023-04-25T13:05:56;3.97;;;1.85;;
56201;SDS011;42117;50.360;3.508;2023-04-25T13:08:22;4.13;;;2.00;;
56201;SDS011;42117;50.360;3.508;2023-04-25T13:10:48;4.32;;;1.73;;
56201;SDS011;42117;50.360;3.508;2023-04-25T13:13:14;2.95;;;2.10;;
56201;SDS011;42117;50.360;3.508;2023-04-25T13:15:41;3.38;;;1.77;;
56201;SDS011;42117;50.360;3.508;2023-04-25T13:18:07;3.63;;;2.10;;
56201;SDS011;42117;50.360;3.508;2023-04-25T13:20:34;4.93;;;1.80;;
56201;SDS011;42117;50.360;3.508;2023-04-25T13:23:00;4.47;;;2.03;;
56201;SDS011;42117;50.360;3.508;2023-04-25T13:25:26;3.78;;;1.88;;
56201;SDS011;42117;50.360;3.508;2023-04-25T13:27:52;2.92;;;1.70;;
56201;SDS011;42117;50.360;3.508;2023-04-25T13:30:18;4.88;;;2.20;;
56201;SDS011;42117;50.360;3.508;2023-04-25T13:32:44;1.70;;;1.60;;
56201;SDS011;42117;50.360;3.508;2023-04-25T13:35:11;3.83;;;1.80;;
56201;SDS011;42117;50.360;3.508;2023-04-25T13:37:38;3.42;;;1.83;;
56201;SDS011;42117;50.360;3.508;2023-04-25T13:40:05;6.03;;;2.00;;
56201;SDS011;42117;50.360;3.508;2023-04-25T13:42:34;7.40;;;2.00;;
56201;SDS011;42117;50.360;3.508;2023-04-25T13:45:00;5.03;;;1.80;;
56201;SDS011;42117;50.360;3.508;2023-04-25T13:47:26;4.15;;;2.00;;
56201;SDS011;42117;50.360;3.508;2023-04-25T13:49:53;4.47;;;1.70;;
56201;SDS011;42117;50.360;3.508;2023-04-25T13:52:19;6.57;;;1.75;;
56201;SDS011;42117;50.360;3.508;2023-04-25T13:54:45;3.42;;;1.70;;
56201;SDS011;42117;50.360;3.508;2023-04-25T13:57:11;2.23;;;1.50;;
56201;SDS011;42117;50.360;3.508;2023-04-25T13:59:38;3.30;;;1.70;;
56201;SDS011;42117;50.360;3.508;2023-04-25T14:02:05;3.67;;;1.75;;
56201;SDS011;42117;50.360;3.508;2023-04-25T14:04:32;4.82;;;1.90;;
56201;SDS011;42117;50.360;3.508;2023-04-25T14:06:58;5.93;;;1.80;;
56201;SDS011;42117;50.360;3.508;2023-04-25T14:09:24;4.97;;;1.60;;
56201;SDS011;42117;50.360;3.508;2023-04-25T14:11:52;3.00;;;1.65;;
56201;SDS011;42117;50.360;3.508;2023-04-25T14:14:18;5.68;;;2.30;;
56201;SDS011;42117;50.360;3.508;2023-04-25T14:16:44;3.40;;;1.65;;
56201;SDS011;42117;50.360;3.508;2023-04-25T14:19:13;5.47;;;2.13;;
56201;SDS011;42117;50.360;3.508;2023-04-25T14:21:39;3.45;;;1.75;;
56201;SDS011;42117;50.360;3.508;2023-04-25T14:24:05;3.33;;;1.85;;
56201;SDS011;42117;50.360;3.508;2023-04-25T14:26:33;4.10;;;1.85;;
56201;SDS011;42117;50.360;3.508;2023-04-25T14:29:00;6.35;;;1.80;;
56201;SDS011;42117;50.360;3.508;2023-04-25T14:31:26;2.03;;;1.40;;
56201;SDS011;42117;50.360;3.508;2023-04-25T14:33:52;2.92;;;1.50;;
56201;SDS011;42117;50.360;3.508;2023-04-25T14:36:18;4.27;;;1.53;;
56201;SDS011;42117;50.360;3.508;2023-04-25T14:38:45;3.35;;;1.80;;
56201;SDS011;42117;50.360;3.508;2023-04-25T14:41:11;3.42;;;1.48;;
56201;SDS011;42117;50.360;3.508;2023-04-25T14:43:37;2.40;;;1.58;;
56201;SDS011;42117;50.360;3.508;2023-04-25T14:46:05;2.78;;;1.63;;
56201;SDS011;42117;50.360;3.508;2023-04-25T14:48:32;4.47;;;2.00;;
56201;SDS011;42117;50.360;3.508;2023-04-25T14:50:58;3.53;;;1.90;;
56201;SDS011;42117;50.360;3.508;2023-04-25T14:53:27;7.13;;;1.92;;
56201;SDS011;42117;50.360;3.508;2023-04-25T14:55:53;5.80;;;2.20;;
56201;SDS011;42117;50.360;3.508;2023-04-25T14:58:19;5.05;;;2.30;;
56201;SDS011;42117;50.360;3.508;2023-04-25T15:00:46;4.20;;;1.70;;